sensor_id;sensor_type;location;lat;lon;timestamp;pressure;altitude;pressure_sealevel;temperature;humidity
48926;BME280;39838;59.938;30.642;2023-02-15T00:01:26;101825.22;;;1.72;64.14
48926;BME280;39838;59.938;30.642;2023-02-15T00:03:54;101824.34;;;1.72;64.20
48926;BME280;39838;59.938;30.642;2023-02-15T00:06:23;101827.19;;;1.76;64.25
48926;BME280;39838;59.938;30.642;2023-02-15T00:08:50;101819.81;;;1.82;64.29
48926;BME280;39838;59.938;30.642;2023-02-15T00:11:18;101811.22;;;1.82;64.26
48926;BME280;39838;59.938;30.642;2023-02-15T00:14:06;101816.94;;;1.76;64.04
48926;BME280;39838;59.938;30.642;2023-02-15T00:16:34;101820.72;;;1.68;64.69
48926;BME280;39838;59.938;30.642;2023-02-15T00:19:02;101828.75;;;1.59;64.60
48926;BME280;39838;59.938;30.642;2023-02-15T00:21:32;101817.81;;;1.47;64.94
48926;BME280;39838;59.938;30.642;2023-02-15T00:24:02;101822.78;;;1.44;65.27
48926;BME280;39838;59.938;30.642;2023-02-15T00:26:30;101818.09;;;1.37;65.50
48926;BME280;39838;59.938;30.642;2023-02-15T00:28:57;101821.53;;;1.38;65.81
48926;BME280;39838;59.938;30.642;2023-02-15T00:31:26;101827.97;;;1.31;66.11
48926;BME280;39838;59.938;30.642;2023-02-15T00:33:54;101821.69;;;1.26;66.16
48926;BME280;39838;59.938;30.642;2023-02-15T00:36:21;101818.84;;;1.21;66.46
48926;BME280;39838;59.938;30.642;2023-02-15T00:38:50;101820.72;;;1.24;66.71
48926;BME280;39838;59.938;30.642;2023-02-15T00:41:18;101820.09;;;1.28;66.62
48926;BME280;39838;59.938;30.642;2023-02-15T00:43:45;101821.09;;;1.30;66.60
48926;BME280;39838;59.938;30.642;2023-02-15T00:46:13;101825.13;;;1.26;66.55
48926;BME280;39838;59.938;30.642;2023-02-15T00:48:40;101819.72;;;1.22;66.64
48926;BME280;39838;59.938;30.642;2023-02-15T00:51:08;101818.97;;;1.23;67.10
48926;BME280;39838;59.938;30.642;2023-02-15T00:53:35;101813.50;;;1.31;67.42
48926;BME280;39838;59.938;30.642;2023-02-15T00:56:04;101813.31;;;1.43;67.04
48926;BME280;39838;59.938;30.642;2023-02-15T00:58:32;101814.09;;;1.42;66.68
48926;BME280;39838;59.938;30.642;2023-02-15T01:01:03;101821.69;;;1.41;66.77
48926;BME280;39838;59.938;30.642;2023-02-15T01:03:31;101821.88;;;1.44;66.58
48926;BME280;39838;59.938;30.642;2023-02-15T01:06:00;101816.31;;;1.51;66.58
48926;BME280;39838;59.938;30.642;2023-02-15T01:08:27;101808.63;;;1.51;66.48
48926;BME280;39838;59.938;30.642;2023-02-15T01:10:55;101802.63;;;1.50;66.09
48926;BME280;39838;59.938;30.642;2023-02-15T01:13:24;101807.22;;;1.41;66.51
48926;BME280;39838;59.938;30.642;2023-02-15T01:15:53;101827.78;;;1.28;66.70
48926;BME280;39838;59.938;30.642;2023-02-15T01:18:21;101824.16;;;1.24;66.74
48926;BME280;39838;59.938;30.642;2023-02-15T01:20:49;101824.63;;;1.32;66.89
48926;BME280;39838;59.938;30.642;2023-02-15T01:23:16;101814.44;;;1.33;66.78
48926;BME280;39838;59.938;30.642;2023-02-15T01:25:44;101822.66;;;1.28;66.66
48926;BME280;39838;59.938;30.642;2023-02-15T01:28:12;101830.19;;;1.25;67.34
48926;BME280;39838;59.938;30.642;2023-02-15T01:30:41;101826.81;;;1.26;67.24
48926;BME280;39838;59.938;30.642;2023-02-15T01:33:09;101830.53;;;1.31;67.09
48926;BME280;39838;59.938;30.642;2023-02-15T01:35:44;101816.56;;;1.41;67.08
48926;BME280;39838;59.938;30.642;2023-02-15T01:38:12;101817.88;;;1.49;66.93
48926;BME280;39838;59.938;30.642;2023-02-15T01:40:40;101817.38;;;1.54;66.75
48926;BME280;39838;59.938;30.642;2023-02-15T01:43:10;101819.59;;;1.63;66.69
48926;BME280;39838;59.938;30.642;2023-02-15T01:45:40;101814.47;;;1.63;66.66
48926;BME280;39838;59.938;30.642;2023-02-15T01:48:17;101791.66;;;1.53;66.72
48926;BME280;39838;59.938;30.642;2023-02-15T01:50:50;101805.53;;;1.71;66.43
48926;BME280;39838;59.938;30.642;2023-02-15T01:53:22;101801.09;;;1.69;66.36
48926;BME280;39838;59.938;30.642;2023-02-15T01:55:55;101799.88;;;1.77;66.30
48926;BME280;39838;59.938;30.642;2023-02-15T01:58:25;101793.50;;;1.85;65.62
48926;BME280;39838;59.938;30.642;2023-02-15T02:00:58;101800.63;;;1.90;65.86
48926;BME280;39838;59.938;30.642;2023-02-15T02:03:34;101789.16;;;1.84;65.59
48926;BME280;39838;59.938;30.642;2023-02-15T02:06:04;101788.81;;;1.78;65.74
48926;BME280;39838;59.938;30.642;2023-02-15T02:08:32;101795.50;;;1.76;65.86
48926;BME280;39838;59.938;30.642;2023-02-15T02:11:00;101793.97;;;1.63;66.15
48926;BME280;39838;59.938;30.642;2023-02-15T02:13:27;101791.75;;;1.54;66.83
48926;BME280;39838;59.938;30.642;2023-02-15T02:16:20;101789.91;;;1.37;66.82
48926;BME280;39838;59.938;30.642;2023-02-15T02:18:57;101785.91;;;1.42;67.52
48926;BME280;39838;59.938;30.642;2023-02-15T02:22:07;101784.59;;;1.49;66.86
48926;BME280;39838;59.938;30.642;2023-02-15T02:25:09;101781.78;;;1.44;66.85
48926;BME280;39838;59.938;30.642;2023-02-15T02:27:42;101784.72;;;1.35;67.48
48926;BME280;39838;59.938;30.642;2023-02-15T02:33:21;101782.56;;;1.14;67.59
48926;BME280;39838;59.938;30.642;2023-02-15T02:35:58;101779.66;;;1.07;68.06
48926;BME280;39838;59.938;30.642;2023-02-15T02:38:36;101780.56;;;1.23;67.65
48926;BME280;39838;59.938;30.642;2023-02-15T02:41:15;101773.31;;;1.30;67.30
48926;BME280;39838;59.938;30.642;2023-02-15T02:43:49;101771.00;;;1.35;67.04
48926;BME280;39838;59.938;30.642;2023-02-15T02:46:23;101773.31;;;1.45;66.94
48926;BME280;39838;59.938;30.642;2023-02-15T02:48:53;101771.53;;;1.44;66.46
48926;BME280;39838;59.938;30.642;2023-02-15T02:51:21;101765.34;;;1.41;66.50
48926;BME280;39838;59.938;30.642;2023-02-15T02:53:52;101722.88;;;1.15;66.48
48926;BME280;39838;59.938;30.642;2023-02-15T02:56:24;101754.59;;;1.31;66.32
48926;BME280;39838;59.938;30.642;2023-02-15T02:58:56;101768.78;;;1.41;66.70
48926;BME280;39838;59.938;30.642;2023-02-15T03:01:29;101744.63;;;1.36;66.73
48926;BME280;39838;59.938;30.642;2023-02-15T03:04:01;101765.97;;;1.51;66.16
48926;BME280;39838;59.938;30.642;2023-02-15T03:06:40;101764.31;;;1.37;66.18
48926;BME280;39838;59.938;30.642;2023-02-15T03:09:12;101766.44;;;1.29;66.36
48926;BME280;39838;59.938;30.642;2023-02-15T03:11:47;101759.88;;;1.20;66.98
48926;BME280;39838;59.938;30.642;2023-02-15T03:14:18;101738.88;;;1.11;67.25
48926;BME280;39838;59.938;30.642;2023-02-15T03:16:47;101762.09;;;1.28;67.23
48926;BME280;39838;59.938;30.642;2023-02-15T03:19:23;101765.09;;;1.21;66.83
48926;BME280;39838;59.938;30.642;2023-02-15T03:21:54;101757.50;;;1.08;67.12
48926;BME280;39838;59.938;30.642;2023-02-15T03:24:32;101759.53;;;0.99;67.93
48926;BME280;39838;59.938;30.642;2023-02-15T03:27:04;101737.81;;;0.77;68.07
48926;BME280;39838;59.938;30.642;2023-02-15T03:29:35;101770.56;;;0.98;68.42
48926;BME280;39838;59.938;30.642;2023-02-15T03:32:06;101774.53;;;1.07;67.98
48926;BME280;39838;59.938;30.642;2023-02-15T03:34:37;101777.00;;;1.06;67.98
48926;BME280;39838;59.938;30.642;2023-02-15T03:37:10;101773.84;;;0.95;67.84
48926;BME280;39838;59.938;30.642;2023-02-15T03:39:44;101774.16;;;0.87;68.33
48926;BME280;39838;59.938;30.642;2023-02-15T03:42:16;101773.78;;;0.80;68.91
48926;BME280;39838;59.938;30.642;2023-02-15T03:44:49;101771.16;;;0.79;68.71
48926;BME280;39838;59.938;30.642;2023-02-15T03:47:22;101774.06;;;0.85;69.06
48926;BME280;39838;59.938;30.642;2023-02-15T03:49:55;101766.47;;;0.87;68.55
48926;BME280;39838;59.938;30.642;2023-02-15T03:52:26;101772.41;;;0.86;68.78
48926;BME280;39838;59.938;30.642;2023-02-15T03:54:54;101773.28;;;0.86;68.69
48926;BME280;39838;59.938;30.642;2023-02-15T03:57:23;101774.34;;;0.90;68.76
48926;BME280;39838;59.938;30.642;2023-02-15T04:00:13;101775.59;;;0.81;68.81
48926;BME280;39838;59.938;30.642;2023-02-15T04:03:07;101776.81;;;0.88;68.22
48926;BME280;39838;59.938;30.642;2023-02-15T04:05:38;101780.09;;;1.00;68.48
48926;BME280;39838;59.938;30.642;2023-02-15T04:08:06;101779.84;;;1.11;67.85
48926;BME280;39838;59.938;30.642;2023-02-15T04:10:33;101781.00;;;1.16;67.83
48926;BME280;39838;59.938;30.642;2023-02-15T04:13:18;101771.28;;;1.25;67.31
48926;BME280;39838;59.938;30.642;2023-02-15T04:15:46;101768.53;;;1.22;67.43
48926;BME280;39838;59.938;30.642;2023-02-15T04:18:31;101778.09;;;1.09;67.53
48926;BME280;39838;59.938;30.642;2023-02-15T04:21:18;101781.09;;;1.02;67.48
48926;BME280;39838;59.938;30.642;2023-02-15T04:24:04;101769.69;;;0.97;68.06
48926;BME280;39838;59.938;30.642;2023-02-15T04:26:49;101774.28;;;0.88;68.09
48926;BME280;39838;59.938;30.642;2023-02-15T04:29:18;101777.34;;;0.82;68.08
48926;BME280;39838;59.938;30.642;2023-02-15T04:31:46;101764.78;;;0.72;69.08
48926;BME280;39838;59.938;30.642;2023-02-15T04:34:14;101774.66;;;0.81;68.67
48926;BME280;39838;59.938;30.642;2023-02-15T04:36:43;101768.78;;;0.82;68.91
48926;BME280;39838;59.938;30.642;2023-02-15T04:39:12;101758.06;;;0.74;68.85
48926;BME280;39838;59.938;30.642;2023-02-15T04:41:40;101760.09;;;0.65;69.36
48926;BME280;39838;59.938;30.642;2023-02-15T04:44:08;101764.03;;;0.60;69.60
48926;BME280;39838;59.938;30.642;2023-02-15T04:46:36;101770.38;;;0.52;69.73
48926;BME280;39838;59.938;30.642;2023-02-15T04:49:04;101768.25;;;0.45;70.13
48926;BME280;39838;59.938;30.642;2023-02-15T04:51:31;101779.25;;;0.44;70.02
48926;BME280;39838;59.938;30.642;2023-02-15T04:54:00;101777.59;;;0.44;69.95
48926;BME280;39838;59.938;30.642;2023-02-15T04:56:28;101789.88;;;0.50;70.08
48926;BME280;39838;59.938;30.642;2023-02-15T04:58:55;101788.19;;;0.50;70.44
48926;BME280;39838;59.938;30.642;2023-02-15T05:01:23;101785.25;;;0.44;70.42
48926;BME280;39838;59.938;30.642;2023-02-15T05:03:50;101778.47;;;0.45;70.45
48926;BME280;39838;59.938;30.642;2023-02-15T05:06:18;101782.88;;;0.47;70.22
48926;BME280;39838;59.938;30.642;2023-02-15T05:08:45;101787.00;;;0.45;70.38
48926;BME280;39838;59.938;30.642;2023-02-15T05:11:14;101780.84;;;0.42;70.12
48926;BME280;39838;59.938;30.642;2023-02-15T05:13:42;101782.31;;;0.38;70.54
48926;BME280;39838;59.938;30.642;2023-02-15T05:16:09;101779.59;;;0.35;70.99
48926;BME280;39838;59.938;30.642;2023-02-15T05:18:37;101779.38;;;0.32;71.12
48926;BME280;39838;59.938;30.642;2023-02-15T05:21:04;101775.88;;;0.30;71.16
48926;BME280;39838;59.938;30.642;2023-02-15T05:23:31;101776.66;;;0.29;71.02
48926;BME280;39838;59.938;30.642;2023-02-15T05:25:59;101773.88;;;0.26;71.41
48926;BME280;39838;59.938;30.642;2023-02-15T05:28:45;101774.91;;;0.28;71.32
48926;BME280;39838;59.938;30.642;2023-02-15T05:31:14;101772.75;;;0.21;71.19
48926;BME280;39838;59.938;30.642;2023-02-15T05:33:42;101776.88;;;0.19;71.35
48926;BME280;39838;59.938;30.642;2023-02-15T05:36:11;101785.72;;;0.24;71.53
48926;BME280;39838;59.938;30.642;2023-02-15T05:38:39;101780.09;;;0.30;70.91
48926;BME280;39838;59.938;30.642;2023-02-15T05:41:07;101781.34;;;0.36;70.93
48926;BME280;39838;59.938;30.642;2023-02-15T05:43:35;101774.84;;;0.41;70.34
48926;BME280;39838;59.938;30.642;2023-02-15T05:46:04;101784.28;;;0.42;70.38
48926;BME280;39838;59.938;30.642;2023-02-15T05:48:32;101774.84;;;0.41;70.14
48926;BME280;39838;59.938;30.642;2023-02-15T05:51:02;101767.94;;;0.40;69.52
48926;BME280;39838;59.938;30.642;2023-02-15T05:53:31;101778.56;;;0.46;69.54
48926;BME280;39838;59.938;30.642;2023-02-15T05:55:59;101785.44;;;0.47;69.38
48926;BME280;39838;59.938;30.642;2023-02-15T05:58:29;101786.63;;;0.39;69.63
48926;BME280;39838;59.938;30.642;2023-02-15T06:00:56;101777.81;;;0.34;70.05
48926;BME280;39838;59.938;30.642;2023-02-15T06:03:25;101770.72;;;0.43;70.10
48926;BME280;39838;59.938;30.642;2023-02-15T06:05:54;101773.00;;;0.53;69.50
48926;BME280;39838;59.938;30.642;2023-02-15T06:08:21;101773.91;;;0.54;69.75
48926;BME280;39838;59.938;30.642;2023-02-15T06:10:49;101772.25;;;0.54;69.50
48926;BME280;39838;59.938;30.642;2023-02-15T06:13:16;101761.22;;;0.56;69.64
48926;BME280;39838;59.938;30.642;2023-02-15T06:15:44;101772.13;;;0.53;69.77
48926;BME280;39838;59.938;30.642;2023-02-15T06:18:11;101771.88;;;0.48;70.27
48926;BME280;39838;59.938;30.642;2023-02-15T06:20:40;101766.66;;;0.47;70.34
48926;BME280;39838;59.938;30.642;2023-02-15T06:23:08;101774.22;;;0.45;70.37
48926;BME280;39838;59.938;30.642;2023-02-15T06:25:35;101770.63;;;0.42;70.58
48926;BME280;39838;59.938;30.642;2023-02-15T06:28:03;101771.50;;;0.42;70.71
48926;BME280;39838;59.938;30.642;2023-02-15T06:30:30;101773.97;;;0.41;70.79
48926;BME280;39838;59.938;30.642;2023-02-15T06:32:58;101774.53;;;0.50;70.91
48926;BME280;39838;59.938;30.642;2023-02-15T06:35:25;101771.25;;;0.52;70.39
48926;BME280;39838;59.938;30.642;2023-02-15T06:37:54;101771.47;;;0.56;70.97
48926;BME280;39838;59.938;30.642;2023-02-15T06:40:22;101775.69;;;0.55;70.75
48926;BME280;39838;59.938;30.642;2023-02-15T06:42:49;101774.56;;;0.65;70.45
48926;BME280;39838;59.938;30.642;2023-02-15T06:45:17;101784.38;;;0.72;70.13
48926;BME280;39838;59.938;30.642;2023-02-15T06:47:44;101782.97;;;0.77;70.14
48926;BME280;39838;59.938;30.642;2023-02-15T06:50:12;101779.53;;;0.76;70.33
48926;BME280;39838;59.938;30.642;2023-02-15T06:52:39;101778.91;;;0.80;70.17
48926;BME280;39838;59.938;30.642;2023-02-15T06:55:08;101782.47;;;0.82;70.18
48926;BME280;39838;59.938;30.642;2023-02-15T06:57:36;101778.22;;;0.83;70.29
48926;BME280;39838;59.938;30.642;2023-02-15T07:00:04;101781.56;;;0.82;70.03
48926;BME280;39838;59.938;30.642;2023-02-15T07:02:32;101782.47;;;0.82;70.28
48926;BME280;39838;59.938;30.642;2023-02-15T07:05:00;101786.69;;;0.82;70.07
48926;BME280;39838;59.938;30.642;2023-02-15T07:07:27;101786.88;;;0.85;70.04
48926;BME280;39838;59.938;30.642;2023-02-15T07:09:55;101784.41;;;1.01;70.15
48926;BME280;39838;59.938;30.642;2023-02-15T07:12:23;101785.66;;;1.08;69.26
48926;BME280;39838;59.938;30.642;2023-02-15T07:15:12;101783.63;;;1.02;69.54
48926;BME280;39838;59.938;30.642;2023-02-15T07:17:39;101793.00;;;1.02;69.54
48926;BME280;39838;59.938;30.642;2023-02-15T07:20:13;101787.44;;;1.09;69.28
48926;BME280;39838;59.938;30.642;2023-02-15T07:22:41;101794.84;;;1.19;69.27
48926;BME280;39838;59.938;30.642;2023-02-15T07:25:10;101779.56;;;1.21;69.05
48926;BME280;39838;59.938;30.642;2023-02-15T07:27:40;101794.84;;;1.34;69.06
48926;BME280;39838;59.938;30.642;2023-02-15T07:30:09;101789.63;;;1.47;68.56
48926;BME280;39838;59.938;30.642;2023-02-15T07:32:37;101790.44;;;1.46;68.21
48926;BME280;39838;59.938;30.642;2023-02-15T07:35:25;101796.28;;;1.44;68.14
48926;BME280;39838;59.938;30.642;2023-02-15T07:37:53;101791.84;;;1.41;68.47
48926;BME280;39838;59.938;30.642;2023-02-15T07:40:21;101777.56;;;1.30;68.38
48926;BME280;39838;59.938;30.642;2023-02-15T07:42:51;101793.97;;;1.48;68.04
48926;BME280;39838;59.938;30.642;2023-02-15T07:45:20;101801.63;;;1.48;68.19
48926;BME280;39838;59.938;30.642;2023-02-15T07:47:48;101805.19;;;1.50;68.21
48926;BME280;39838;59.938;30.642;2023-02-15T07:50:16;101806.31;;;1.55;68.23
48926;BME280;39838;59.938;30.642;2023-02-15T07:52:44;101809.88;;;1.57;67.95
48926;BME280;39838;59.938;30.642;2023-02-15T07:55:11;101798.91;;;1.60;68.03
48926;BME280;39838;59.938;30.642;2023-02-15T07:57:42;101805.88;;;1.62;67.85
48926;BME280;39838;59.938;30.642;2023-02-15T08:00:14;101782.66;;;1.59;67.87
48926;BME280;39838;59.938;30.642;2023-02-15T08:02:41;101804.19;;;1.78;67.80
48926;BME280;39838;59.938;30.642;2023-02-15T08:05:09;101805.50;;;1.86;67.25
48926;BME280;39838;59.938;30.642;2023-02-15T08:07:36;101800.78;;;1.94;67.11
48926;BME280;39838;59.938;30.642;2023-02-15T08:10:04;101808.81;;;2.00;66.92
48926;BME280;39838;59.938;30.642;2023-02-15T08:12:32;101807.47;;;2.06;66.70
48926;BME280;39838;59.938;30.642;2023-02-15T08:15:00;101804.78;;;2.19;66.41
48926;BME280;39838;59.938;30.642;2023-02-15T08:17:30;101805.78;;;2.38;65.90
48926;BME280;39838;59.938;30.642;2023-02-15T08:19:57;101799.44;;;2.31;65.57
48926;BME280;39838;59.938;30.642;2023-02-15T08:22:24;101802.97;;;2.33;65.53
48926;BME280;39838;59.938;30.642;2023-02-15T08:24:52;101806.91;;;2.43;65.85
48926;BME280;39838;59.938;30.642;2023-02-15T08:27:19;101809.66;;;2.46;65.43
48926;BME280;39838;59.938;30.642;2023-02-15T08:29:52;101808.59;;;2.42;65.59
48926;BME280;39838;59.938;30.642;2023-02-15T08:32:19;101803.56;;;2.44;65.37
48926;BME280;39838;59.938;30.642;2023-02-15T08:34:48;101807.47;;;2.37;65.64
48926;BME280;39838;59.938;30.642;2023-02-15T08:37:15;101809.31;;;2.40;65.60
48926;BME280;39838;59.938;30.642;2023-02-15T08:39:42;101813.81;;;2.44;65.41
48926;BME280;39838;59.938;30.642;2023-02-15T08:42:09;101805.19;;;2.58;65.37
48926;BME280;39838;59.938;30.642;2023-02-15T08:44:36;101805.50;;;2.64;65.08
48926;BME280;39838;59.938;30.642;2023-02-15T08:47:03;101806.13;;;2.77;64.71
48926;BME280;39838;59.938;30.642;2023-02-15T08:49:31;101811.75;;;2.86;64.80
48926;BME280;39838;59.938;30.642;2023-02-15T08:51:59;101811.56;;;2.83;64.35
48926;BME280;39838;59.938;30.642;2023-02-15T08:54:27;101805.97;;;2.73;64.47
48926;BME280;39838;59.938;30.642;2023-02-15T08:56:54;101809.34;;;2.72;64.37
48926;BME280;39838;59.938;30.642;2023-02-15T08:59:22;101790.56;;;2.57;64.56
48926;BME280;39838;59.938;30.642;2023-02-15T09:01:51;101793.44;;;2.63;64.65
48926;BME280;39838;59.938;30.642;2023-02-15T09:04:18;101800.50;;;2.84;64.20
48926;BME280;39838;59.938;30.642;2023-02-15T09:06:47;101800.34;;;2.81;63.63
48926;BME280;39838;59.938;30.642;2023-02-15T09:09:16;101800.44;;;2.82;63.66
48926;BME280;39838;59.938;30.642;2023-02-15T09:11:45;101802.19;;;2.67;63.66
48926;BME280;39838;59.938;30.642;2023-02-15T09:14:17;101779.88;;;2.50;64.20
48926;BME280;39838;59.938;30.642;2023-02-15T09:16:46;101802.19;;;2.67;64.22
48926;BME280;39838;59.938;30.642;2023-02-15T09:19:17;101805.66;;;2.67;64.26
48926;BME280;39838;59.938;30.642;2023-02-15T09:21:45;101799.88;;;2.71;63.97
48926;BME280;39838;59.938;30.642;2023-02-15T09:24:14;101803.00;;;2.66;64.13
48926;BME280;39838;59.938;30.642;2023-02-15T09:26:46;101795.94;;;2.62;64.33
48926;BME280;39838;59.938;30.642;2023-02-15T09:29:14;101797.38;;;2.73;64.22
48926;BME280;39838;59.938;30.642;2023-02-15T09:31:43;101799.22;;;2.92;64.04
48926;BME280;39838;59.938;30.642;2023-02-15T09:34:11;101792.94;;;3.03;63.79
48926;BME280;39838;59.938;30.642;2023-02-15T09:36:39;101797.19;;;3.19;63.53
48926;BME280;39838;59.938;30.642;2023-02-15T09:39:09;101792.44;;;3.26;63.01
48926;BME280;39838;59.938;30.642;2023-02-15T09:44:53;101798.25;;;3.06;63.29
48926;BME280;39838;59.938;30.642;2023-02-15T09:50:26;101784.03;;;2.96;64.04
48926;BME280;39838;59.938;30.642;2023-02-15T09:53:10;101770.41;;;2.97;63.90
48926;BME280;39838;59.938;30.642;2023-02-15T09:55:51;101780.66;;;3.14;64.37
48926;BME280;39838;59.938;30.642;2023-02-15T09:58:29;101787.16;;;3.41;63.64
48926;BME280;39838;59.938;30.642;2023-02-15T10:01:08;101783.22;;;3.48;62.68
48926;BME280;39838;59.938;30.642;2023-02-15T10:03:50;101778.19;;;3.33;62.74
48926;BME280;39838;59.938;30.642;2023-02-15T10:06:32;101787.16;;;3.41;63.05
48926;BME280;39838;59.938;30.642;2023-02-15T10:09:29;101782.63;;;3.53;63.09
48926;BME280;39838;59.938;30.642;2023-02-15T10:15:14;101784.75;;;3.98;62.20
48926;BME280;39838;59.938;30.642;2023-02-15T10:17:59;101785.31;;;4.10;60.92
48926;BME280;39838;59.938;30.642;2023-02-15T10:20:33;101778.44;;;3.91;61.11
48926;BME280;39838;59.938;30.642;2023-02-15T10:26:02;101768.22;;;3.93;61.09
48926;BME280;39838;59.938;30.642;2023-02-15T10:28:39;101782.47;;;4.04;61.34
48926;BME280;39838;59.938;30.642;2023-02-15T10:31:15;101774.22;;;4.11;60.89
48926;BME280;39838;59.938;30.642;2023-02-15T10:33:52;101768.53;;;4.18;59.99
48926;BME280;39838;59.938;30.642;2023-02-15T10:36:32;101775.72;;;4.25;59.88
48926;BME280;39838;59.938;30.642;2023-02-15T10:39:07;101775.53;;;4.40;60.13
48926;BME280;39838;59.938;30.642;2023-02-15T10:41:46;101782.81;;;4.49;60.15
48926;BME280;39838;59.938;30.642;2023-02-15T10:44:28;101765.84;;;4.54;59.40
48926;BME280;39838;59.938;30.642;2023-02-15T10:47:22;101769.66;;;4.43;59.28
48926;BME280;39838;59.938;30.642;2023-02-15T10:50:13;101768.81;;;4.24;59.38
48926;BME280;39838;59.938;30.642;2023-02-15T10:52:53;101767.53;;;4.15;59.47
48926;BME280;39838;59.938;30.642;2023-02-15T10:55:35;101774.91;;;4.07;60.00
48926;BME280;39838;59.938;30.642;2023-02-15T10:58:10;101773.50;;;3.96;59.70
48926;BME280;39838;59.938;30.642;2023-02-15T11:00:43;101774.03;;;3.89;59.65
48926;BME280;39838;59.938;30.642;2023-02-15T11:03:24;101778.44;;;3.91;59.49
48926;BME280;39838;59.938;30.642;2023-02-15T11:06:02;101773.88;;;3.86;59.13
48926;BME280;39838;59.938;30.642;2023-02-15T11:08:34;101770.00;;;3.76;59.81
48926;BME280;39838;59.938;30.642;2023-02-15T11:11:05;101770.22;;;3.80;59.76
48926;BME280;39838;59.938;30.642;2023-02-15T11:13:38;101773.91;;;3.68;59.84
48926;BME280;39838;59.938;30.642;2023-02-15T11:16:10;101772.72;;;3.61;60.03
48926;BME280;39838;59.938;30.642;2023-02-15T11:18:41;101762.06;;;3.71;60.21
48926;BME280;39838;59.938;30.642;2023-02-15T11:21:17;101761.69;;;3.81;60.24
48926;BME280;39838;59.938;30.642;2023-02-15T11:23:46;101757.97;;;3.75;59.97
48926;BME280;39838;59.938;30.642;2023-02-15T11:26:18;101729.16;;;3.64;59.95
48926;BME280;39838;59.938;30.642;2023-02-15T11:28:51;101743.94;;;3.68;59.46
48926;BME280;39838;59.938;30.642;2023-02-15T11:31:22;101732.75;;;3.50;60.01
48926;BME280;39838;59.938;30.642;2023-02-15T11:33:52;101729.66;;;3.21;60.04
48926;BME280;39838;59.938;30.642;2023-02-15T11:36:26;101743.63;;;3.26;60.28
48926;BME280;39838;59.938;30.642;2023-02-15T11:38:59;101738.63;;;3.29;60.23
48926;BME280;39838;59.938;30.642;2023-02-15T11:41:33;101738.38;;;3.25;60.24
48926;BME280;39838;59.938;30.642;2023-02-15T11:44:06;101742.81;;;3.27;60.25
48926;BME280;39838;59.938;30.642;2023-02-15T11:46:38;101745.88;;;3.38;60.34
48926;BME280;39838;59.938;30.642;2023-02-15T11:49:14;101732.34;;;3.41;59.90
48926;BME280;39838;59.938;30.642;2023-02-15T11:51:45;101736.16;;;3.49;59.91
48926;BME280;39838;59.938;30.642;2023-02-15T11:54:13;101746.28;;;3.46;59.92
48926;BME280;39838;59.938;30.642;2023-02-15T11:56:40;101743.25;;;3.37;59.64
48926;BME280;39838;59.938;30.642;2023-02-15T11:59:11;101742.94;;;3.31;60.09
48926;BME280;39838;59.938;30.642;2023-02-15T12:01:42;101736.44;;;3.19;60.50
48926;BME280;39838;59.938;30.642;2023-02-15T12:04:15;101730.47;;;3.20;60.48
48926;BME280;39838;59.938;30.642;2023-02-15T12:06:49;101739.56;;;3.32;60.30
48926;BME280;39838;59.938;30.642;2023-02-15T12:09:24;101738.63;;;3.29;59.53
48926;BME280;39838;59.938;30.642;2023-02-15T12:11:55;101693.38;;;2.97;59.94
48926;BME280;39838;59.938;30.642;2023-02-15T12:14:47;101736.25;;;3.16;60.27
48926;BME280;39838;59.938;30.642;2023-02-15T12:17:16;101732.75;;;3.14;60.00
48926;BME280;39838;59.938;30.642;2023-02-15T12:19:44;101742.06;;;3.12;60.09
48926;BME280;39838;59.938;30.642;2023-02-15T12:22:23;101729.59;;;3.20;59.78
48926;BME280;39838;59.938;30.642;2023-02-15T12:24:54;101725.13;;;3.34;59.83
48926;BME280;39838;59.938;30.642;2023-02-15T12:27:24;101728.66;;;3.36;59.17
48926;BME280;39838;59.938;30.642;2023-02-15T12:29:54;101711.69;;;3.21;59.38
48926;BME280;39838;59.938;30.642;2023-02-15T12:32:25;101733.41;;;3.28;59.14
48926;BME280;39838;59.938;30.642;2023-02-15T12:34:56;101734.22;;;3.27;58.64
48926;BME280;39838;59.938;30.642;2023-02-15T12:37:27;101733.03;;;3.20;58.68
48926;BME280;39838;59.938;30.642;2023-02-15T12:39:57;101739.94;;;3.21;58.88
48926;BME280;39838;59.938;30.642;2023-02-15T12:42:26;101739.94;;;3.21;58.82
48926;BME280;39838;59.938;30.642;2023-02-15T12:44:59;101741.19;;;3.12;58.67
48926;BME280;39838;59.938;30.642;2023-02-15T12:47:27;101737.50;;;3.07;58.83
48926;BME280;39838;59.938;30.642;2023-02-15T12:50:14;101722.94;;;2.89;58.70
48926;BME280;39838;59.938;30.642;2023-02-15T12:52:47;101719.97;;;2.82;58.86
48926;BME280;39838;59.938;30.642;2023-02-15T12:55:21;101744.13;;;2.85;58.89
48926;BME280;39838;59.938;30.642;2023-02-15T12:57:49;101747.56;;;2.86;59.16
48926;BME280;39838;59.938;30.642;2023-02-15T13:00:28;101715.19;;;2.71;58.86
48926;BME280;39838;59.938;30.642;2023-02-15T13:02:58;101745.38;;;2.93;59.28
48926;BME280;39838;59.938;30.642;2023-02-15T13:05:30;101747.72;;;2.89;58.97
48926;BME280;39838;59.938;30.642;2023-02-15T13:08:02;101766.25;;;2.83;58.98
48926;BME280;39838;59.938;30.642;2023-02-15T13:10:33;101757.66;;;2.83;59.03
48926;BME280;39838;59.938;30.642;2023-02-15T13:13:00;101744.84;;;2.83;58.96
48926;BME280;39838;59.938;30.642;2023-02-15T13:15:34;101746.00;;;2.71;58.78
48926;BME280;39838;59.938;30.642;2023-02-15T13:18:03;101746.56;;;2.66;58.88
48926;BME280;39838;59.938;30.642;2023-02-15T13:20:32;101751.50;;;2.63;59.00
48926;BME280;39838;59.938;30.642;2023-02-15T13:23:05;101742.78;;;2.59;59.11
48926;BME280;39838;59.938;30.642;2023-02-15T13:25:40;101750.63;;;2.62;58.94
48926;BME280;39838;59.938;30.642;2023-02-15T13:28:17;101745.81;;;2.68;59.19